createdAt,value
2022-08-03T00:01:41.999Z,14.10
2022-08-03T00:04:09.612Z,13.93
2022-08-03T00:06:37.398Z,13.07
2022-08-03T00:09:07.687Z,13.20
2022-08-03T00:11:34.966Z,14.40
2022-08-03T00:14:02.177Z,13.47
2022-08-03T00:16:29.457Z,13.67
2022-08-03T00:18:56.591Z,13.20
2022-08-03T00:21:23.819Z,12.57
2022-08-03T00:23:52.879Z,12.50
2022-08-03T00:26:23.205Z,11.70
2022-08-03T00:28:50.841Z,10.70
2022-08-03T00:31:39.888Z,11.30
2022-08-03T00:34:06.035Z,10.83
2022-08-03T00:36:34.224Z,10.50
2022-08-03T00:39:01.441Z,10.87
2022-08-03T00:41:28.587Z,11.87
2022-08-03T00:43:55.726Z,13.10
2022-08-03T00:46:22.907Z,12.93
2022-08-03T00:48:53.175Z,13.27
2022-08-03T00:51:21.231Z,12.27
2022-08-03T00:53:48.539Z,13.10
2022-08-03T00:56:18.939Z,12.73
2022-08-03T00:58:46.864Z,13.30
2022-08-03T01:01:14.334Z,13.60
2022-08-03T01:03:41.557Z,13.67
2022-08-03T01:06:17.514Z,13.67
2022-08-03T01:08:51.673Z,12.90
2022-08-03T01:11:18.873Z,12.37
2022-08-03T01:14:03.466Z,12.17
2022-08-03T01:16:45.287Z,11.77
2022-08-03T01:19:24.562Z,13.67
2022-08-03T01:21:51.691Z,12.13
2022-08-03T01:24:31.233Z,12.83
2022-08-03T01:27:01.933Z,12.67
2022-08-03T01:29:49.556Z,11.97
2022-08-03T01:33:02.385Z,12.30
2022-08-03T01:35:11.095Z,11.87
2022-08-03T01:37:57.178Z,12.00
2022-08-03T01:40:26.277Z,11.77
2022-08-03T01:42:55.155Z,11.97
2022-08-03T01:45:23.081Z,12.17
2022-08-03T01:47:50.391Z,11.77
2022-08-03T01:50:19.807Z,11.60
2022-08-03T01:52:48.102Z,11.17
2022-08-03T01:55:17.903Z,11.20
2022-08-03T01:58:05.377Z,11.50
2022-08-03T02:00:33.582Z,11.03
2022-08-03T02:03:01.682Z,11.10
2022-08-03T02:05:29.290Z,10.43
2022-08-03T02:07:56.866Z,10.17
2022-08-03T02:10:34.707Z,10.93
2022-08-03T02:13:03.730Z,10.63
2022-08-03T02:15:31.219Z,11.40
2022-08-03T02:17:58.741Z,11.33
2022-08-03T02:20:26.135Z,11.90
2022-08-03T02:22:53.629Z,12.73
2022-08-03T02:25:20.924Z,12.70
2022-08-03T02:27:58.879Z,11.97
2022-08-03T02:30:29.999Z,12.73
2022-08-03T02:32:58.550Z,12.67
2022-08-03T02:35:27.330Z,14.53
2022-08-03T02:37:58.037Z,14.90
2022-08-03T02:40:26.657Z,15.20
2022-08-03T02:42:55.664Z,16.07
2022-08-03T02:45:24.986Z,15.13
2022-08-03T02:47:54.989Z,15.07
2022-08-03T02:50:23.595Z,15.93
2022-08-03T02:52:51.874Z,16.40
2022-08-03T02:55:21.046Z,16.70
2022-08-03T02:57:48.486Z,16.13
2022-08-03T03:00:27.204Z,16.60
2022-08-03T03:02:56.784Z,16.37
2022-08-03T03:05:53.329Z,17.50
2022-08-03T03:08:18.676Z,17.17
2022-08-03T03:10:48.400Z,17.87
2022-08-03T03:13:21.872Z,18.77
2022-08-03T03:15:49.740Z,20.27
2022-08-03T03:18:21.867Z,19.70
2022-08-03T03:20:50.490Z,20.53
2022-08-03T03:23:17.886Z,20.07
2022-08-03T03:25:45.227Z,20.20
2022-08-03T03:28:12.366Z,20.53
2022-08-03T03:30:39.523Z,21.93
2022-08-03T03:33:07.394Z,20.90
2022-08-03T03:35:38.761Z,21.43
2022-08-03T03:38:07.122Z,20.57
2022-08-03T03:40:35.870Z,20.37
2022-08-03T03:43:03.379Z,18.70
2022-08-03T03:45:31.787Z,17.27
2022-08-03T03:48:00.483Z,17.30
2022-08-03T03:50:28.130Z,16.13
2022-08-03T03:52:55.345Z,15.20
2022-08-03T03:55:22.446Z,15.37
2022-08-03T03:57:49.588Z,14.90
2022-08-03T04:00:18.158Z,14.03
2022-08-03T04:02:46.021Z,13.23
2022-08-03T04:05:32.091Z,11.70
2022-08-03T04:08:18.151Z,11.17
2022-08-03T04:11:00.078Z,11.93
2022-08-03T04:13:32.669Z,12.40
2022-08-03T04:16:00.274Z,12.70
2022-08-03T04:18:28.686Z,11.83
2022-08-03T04:20:57.733Z,11.30
2022-08-03T04:23:26.100Z,12.40
2022-08-03T04:25:54.155Z,15.20
2022-08-03T04:28:30.672Z,16.43
2022-08-03T04:30:58.930Z,16.87
2022-08-03T04:33:29.365Z,17.90
2022-08-03T04:36:02.661Z,18.67
2022-08-03T04:38:32.103Z,19.17
2022-08-03T04:41:00.077Z,19.87
2022-08-03T04:43:27.599Z,19.40
2022-08-03T04:45:55.178Z,18.80
2022-08-03T04:48:22.432Z,17.13
2022-08-03T04:50:49.748Z,17.03
2022-08-03T04:53:18.092Z,17.63
2022-08-03T04:55:46.620Z,15.27
2022-08-03T04:58:13.769Z,17.87
2022-08-03T05:00:40.926Z,18.37
2022-08-03T05:03:23.467Z,16.73
2022-08-03T05:05:52.415Z,17.63
2022-08-03T05:08:27.644Z,19.03
2022-08-03T05:10:55.514Z,18.87
2022-08-03T05:13:26.145Z,17.80
2022-08-03T05:15:53.314Z,18.73
2022-08-03T05:18:20.539Z,17.47
2022-08-03T05:20:47.757Z,17.50
2022-08-03T05:23:14.881Z,17.10
2022-08-03T05:25:50.202Z,16.27
2022-08-03T05:28:17.739Z,15.83
2022-08-03T05:30:44.973Z,15.23
2022-08-03T05:33:12.097Z,16.40
2022-08-03T05:35:57.206Z,15.73
2022-08-03T05:38:33.856Z,15.70
2022-08-03T05:41:22.000Z,14.97
2022-08-03T05:43:49.937Z,15.07
2022-08-03T05:46:17.063Z,14.90
2022-08-03T05:48:44.215Z,15.33
2022-08-03T05:51:12.120Z,14.90
2022-08-03T05:53:40.425Z,14.97
2022-08-03T05:56:14.261Z,14.97
2022-08-03T05:58:46.564Z,15.43
2022-08-03T06:01:14.022Z,14.83
2022-08-03T06:03:41.463Z,13.37
2022-08-03T06:06:17.636Z,14.23
2022-08-03T06:08:45.404Z,13.93
2022-08-03T06:11:13.209Z,14.67
2022-08-03T06:13:41.100Z,13.77
2022-08-03T06:16:08.332Z,13.37
2022-08-03T06:18:35.593Z,13.00
2022-08-03T06:21:14.772Z,12.87
2022-08-03T06:23:53.851Z,12.43
2022-08-03T06:26:23.319Z,12.00
2022-08-03T06:28:52.758Z,12.13
2022-08-03T06:31:22.732Z,11.10
2022-08-03T06:34:32.353Z,10.60
2022-08-03T06:36:37.099Z,11.03
2022-08-03T06:39:05.051Z,10.50
2022-08-03T06:41:38.008Z,10.50
2022-08-03T06:44:11.712Z,9.73
2022-08-03T06:46:38.893Z,9.87
2022-08-03T06:49:06.218Z,10.03
2022-08-03T06:52:03.329Z,9.20
2022-08-03T06:54:22.244Z,9.27
2022-08-03T06:56:49.379Z,9.10
2022-08-03T07:00:09.402Z,9.40
2022-08-03T07:02:03.957Z,8.30
2022-08-03T07:04:31.197Z,8.67
2022-08-03T07:06:58.525Z,8.60
2022-08-03T07:09:26.731Z,8.30
2022-08-03T07:11:53.899Z,7.70
2022-08-03T07:14:21.075Z,8.07
2022-08-03T07:16:48.274Z,8.03
2022-08-03T07:19:15.420Z,7.97
2022-08-03T07:21:42.600Z,7.70
2022-08-03T07:24:09.816Z,7.83
2022-08-03T07:26:36.972Z,7.47
2022-08-03T07:29:04.130Z,7.57
2022-08-03T07:31:42.201Z,6.90
2022-08-03T07:34:09.352Z,6.97
2022-08-03T07:36:36.489Z,7.17
2022-08-03T07:39:16.689Z,7.77
2022-08-03T07:41:45.418Z,7.00
2022-08-03T07:44:12.605Z,6.93
2022-08-03T07:46:39.859Z,7.00
2022-08-03T07:49:07.030Z,7.57
2022-08-03T07:51:34.369Z,8.10
2022-08-03T07:54:01.624Z,7.33
2022-08-03T07:56:28.927Z,7.60
2022-08-03T07:58:56.202Z,7.73
2022-08-03T08:01:23.895Z,8.03
2022-08-03T08:03:52.672Z,7.97
2022-08-03T08:06:21.207Z,7.93
2022-08-03T08:08:48.759Z,7.37
2022-08-03T08:11:15.928Z,8.23
2022-08-03T08:13:43.054Z,7.73
2022-08-03T08:16:10.187Z,7.50
2022-08-03T08:18:37.324Z,7.33
2022-08-03T08:21:04.511Z,6.87
2022-08-03T08:23:41.862Z,6.63
2022-08-03T08:26:10.502Z,6.80
2022-08-03T08:28:37.649Z,6.03
2022-08-03T08:31:04.839Z,6.30
2022-08-03T08:33:54.196Z,6.80
2022-08-03T08:36:19.493Z,6.70
2022-08-03T08:38:46.689Z,6.70
2022-08-03T08:41:14.282Z,6.43
2022-08-03T08:43:42.199Z,6.40
2022-08-03T08:46:12.339Z,7.10
2022-08-03T08:48:44.652Z,6.60
2022-08-03T08:51:12.708Z,6.60
2022-08-03T08:53:41.787Z,6.47
2022-08-03T08:56:10.508Z,6.47
2022-08-03T08:58:38.881Z,6.40
2022-08-03T09:01:06.372Z,6.50
2022-08-03T09:03:37.007Z,6.10
2022-08-03T09:06:04.569Z,6.10
2022-08-03T09:08:32.246Z,6.30
2022-08-03T09:10:59.858Z,6.03
2022-08-03T09:13:27.050Z,6.10
2022-08-03T09:16:11.091Z,6.17
2022-08-03T09:18:38.830Z,5.70
2022-08-03T09:21:36.501Z,6.30
2022-08-03T09:24:07.108Z,5.83
2022-08-03T09:26:38.136Z,5.67
2022-08-03T09:29:14.858Z,5.83
2022-08-03T09:31:43.779Z,5.30
2022-08-03T09:34:15.561Z,5.83
2022-08-03T09:36:43.888Z,5.90
2022-08-03T09:39:15.824Z,5.30
2022-08-03T09:41:48.333Z,5.80
2022-08-03T09:44:24.412Z,6.00
2022-08-03T09:46:53.511Z,5.47
2022-08-03T09:49:20.715Z,5.27
2022-08-03T09:52:32.416Z,5.78
2022-08-03T09:54:35.282Z,6.32
2022-08-03T09:57:02.964Z,6.25
2022-08-03T09:59:31.713Z,5.93
2022-08-03T10:02:02.475Z,6.35
2022-08-03T10:04:29.908Z,5.55
2022-08-03T10:07:10.741Z,6.07
2022-08-03T10:09:38.299Z,5.97
2022-08-03T10:12:12.322Z,5.50
2022-08-03T10:14:40.372Z,5.95
2022-08-03T10:17:07.514Z,6.30
2022-08-03T10:19:34.944Z,6.05
2022-08-03T10:22:04.877Z,6.57
2022-08-03T10:24:33.885Z,6.30
2022-08-03T10:27:03.352Z,6.60
2022-08-03T10:29:34.899Z,6.70
2022-08-03T10:32:04.322Z,7.07
2022-08-03T10:34:42.604Z,7.37
2022-08-03T10:37:12.664Z,7.20
2022-08-03T10:39:53.208Z,7.97
2022-08-03T10:42:26.407Z,7.67
2022-08-03T10:45:07.223Z,7.97
2022-08-03T10:47:35.877Z,8.45
2022-08-03T10:50:03.678Z,7.33
2022-08-03T10:52:32.759Z,7.40
2022-08-03T10:55:20.760Z,8.38
2022-08-03T10:57:50.307Z,8.37
2022-08-03T11:00:21.253Z,8.73
2022-08-03T11:03:07.093Z,9.00
2022-08-03T11:05:44.944Z,8.80
2022-08-03T11:08:19.447Z,8.77
2022-08-03T11:10:46.855Z,9.40
2022-08-03T11:13:18.128Z,9.23
2022-08-03T11:15:46.734Z,8.87
2022-08-03T11:18:14.580Z,9.10
2022-08-03T11:20:46.303Z,10.13
2022-08-03T11:23:13.593Z,9.77
2022-08-03T11:25:59.265Z,9.57
2022-08-03T11:28:30.667Z,9.07
2022-08-03T11:30:58.044Z,8.75
2022-08-03T11:33:31.869Z,7.38
2022-08-03T11:36:00.468Z,8.40
2022-08-03T11:38:27.636Z,8.05
2022-08-03T11:40:55.098Z,7.57
2022-08-03T11:43:31.991Z,8.27
2022-08-03T11:45:59.287Z,7.40
2022-08-03T11:48:45.672Z,7.93
2022-08-03T11:51:21.898Z,7.88
2022-08-03T11:53:52.220Z,7.68
2022-08-03T11:56:20.134Z,7.78
2022-08-03T11:59:16.364Z,7.43
2022-08-03T12:01:42.608Z,7.05
2022-08-03T12:04:11.396Z,7.45
2022-08-03T12:06:55.085Z,6.88
2022-08-03T12:09:22.853Z,7.15
2022-08-03T12:11:59.680Z,6.88
2022-08-03T12:14:48.291Z,6.50
2022-08-03T12:17:15.622Z,6.43
2022-08-03T12:19:43.686Z,7.35
2022-08-03T12:22:10.866Z,6.43
2022-08-03T12:24:42.568Z,6.28
2022-08-03T12:27:09.797Z,6.53
2022-08-03T12:29:37.129Z,6.60
2022-08-03T12:32:04.406Z,6.00
2022-08-03T12:34:50.052Z,6.95
2022-08-03T12:37:22.702Z,6.75
2022-08-03T12:40:02.405Z,6.80
2022-08-03T12:42:36.333Z,6.88
2022-08-03T12:45:39.331Z,6.85
2022-08-03T12:48:10.379Z,6.72
2022-08-03T12:50:39.344Z,6.78
2022-08-03T12:53:09.108Z,6.30
2022-08-03T12:55:56.621Z,5.72
2022-08-03T12:58:37.249Z,6.38
2022-08-03T13:01:10.507Z,6.45
2022-08-03T13:03:49.520Z,5.85
2022-08-03T13:06:18.995Z,6.03
2022-08-03T13:08:47.985Z,5.53
2022-08-03T13:11:53.450Z,5.53
2022-08-03T13:14:16.848Z,5.68
2022-08-03T13:16:47.059Z,5.95
2022-08-03T13:19:15.292Z,5.30
2022-08-03T13:21:53.614Z,5.95
2022-08-03T13:24:31.428Z,5.97
2022-08-03T13:26:59.168Z,5.45
2022-08-03T13:29:26.291Z,5.40
2022-08-03T13:31:53.526Z,5.47
2022-08-03T13:34:23.660Z,5.70
2022-08-03T13:37:09.303Z,5.15
2022-08-03T13:39:57.993Z,5.95
2022-08-03T13:42:24.500Z,5.70
2022-08-03T13:44:51.654Z,5.15
2022-08-03T13:47:19.915Z,5.30
2022-08-03T13:49:54.284Z,5.40
2022-08-03T13:52:27.775Z,5.25
2022-08-03T13:54:55.116Z,5.10
2022-08-03T13:58:03.513Z,4.85
2022-08-03T14:00:09.962Z,4.47
2022-08-03T14:02:37.376Z,4.75
2022-08-03T14:05:04.802Z,4.55
2022-08-03T14:08:06.661Z,3.92
2022-08-03T14:10:34.886Z,4.82
2022-08-03T14:13:02.108Z,4.03
2022-08-03T14:15:29.230Z,4.28
2022-08-03T14:17:58.510Z,4.28
2022-08-03T14:20:37.813Z,3.97
2022-08-03T14:23:06.918Z,4.05
2022-08-03T14:25:44.416Z,4.00
2022-08-03T14:28:20.625Z,3.90
2022-08-03T14:30:48.543Z,3.78
2022-08-03T14:33:15.926Z,4.40
2022-08-03T14:35:43.350Z,4.40
2022-08-03T14:38:10.545Z,3.90
2022-08-03T14:40:37.698Z,3.80
2022-08-03T14:43:04.895Z,3.65
2022-08-03T14:45:32.049Z,4.30
2022-08-03T14:50:31.051Z,3.63
2022-08-03T14:50:51.743Z,3.90
2022-08-03T14:53:19.790Z,3.80
2022-08-03T14:55:49.837Z,3.95
2022-08-03T14:58:20.636Z,3.80
2022-08-03T15:00:48.678Z,4.10
2022-08-03T15:03:16.944Z,4.00
2022-08-03T15:05:44.823Z,3.70
2022-08-03T15:08:12.070Z,3.90
2022-08-03T15:10:43.959Z,3.88
2022-08-03T15:13:12.703Z,3.70
2022-08-03T15:15:39.881Z,3.63
2022-08-03T15:18:07.106Z,3.53
2022-08-03T15:20:49.637Z,3.75
2022-08-03T15:23:17.872Z,4.20
2022-08-03T15:26:03.150Z,3.80
2022-08-03T15:28:32.928Z,3.40
2022-08-03T15:31:00.130Z,4.13
2022-08-03T15:33:27.295Z,4.38
2022-08-03T15:35:54.704Z,3.80
2022-08-03T15:38:25.631Z,3.65
2022-08-03T15:40:54.580Z,4.45
2022-08-03T15:43:22.334Z,4.25
2022-08-03T15:45:54.649Z,4.00
2022-08-03T15:48:36.725Z,4.10
2022-08-03T15:51:05.245Z,3.78
2022-08-03T15:53:33.571Z,4.07
2022-08-03T15:56:02.028Z,3.90
2022-08-03T15:59:09.576Z,3.78
2022-08-03T16:01:20.259Z,3.75
2022-08-03T16:03:47.644Z,3.88
2022-08-03T16:06:14.856Z,3.67
2022-08-03T16:08:42.027Z,4.00
2022-08-03T16:11:09.194Z,3.80
2022-08-03T16:14:13.209Z,3.50
2022-08-03T16:16:23.786Z,3.95
2022-08-03T16:18:50.970Z,3.92
2022-08-03T16:21:19.529Z,3.55
2022-08-03T16:23:48.936Z,4.55
2022-08-03T16:26:16.113Z,3.97
2022-08-03T16:28:43.334Z,4.20
2022-08-03T16:31:10.476Z,4.00
2022-08-03T16:33:37.599Z,4.28
2022-08-03T16:36:04.855Z,3.88
2022-08-03T16:38:32.075Z,4.30
2022-08-03T16:40:59.576Z,3.95
2022-08-03T16:43:26.742Z,4.60
2022-08-03T16:45:53.941Z,3.78
2022-08-03T16:48:21.146Z,3.72
2022-08-03T16:50:48.526Z,3.90
2022-08-03T16:53:17.228Z,3.90
2022-08-03T16:55:53.449Z,4.57
2022-08-03T16:58:41.784Z,3.90
2022-08-03T17:01:24.449Z,3.58
2022-08-03T17:04:04.505Z,4.15
2022-08-03T17:06:36.914Z,3.90
2022-08-03T17:09:08.509Z,3.80
2022-08-03T17:11:37.996Z,3.65
2022-08-03T17:14:09.438Z,3.47
2022-08-03T17:16:38.377Z,3.45
2022-08-03T17:19:07.188Z,3.50
2022-08-03T17:21:39.315Z,3.97
2022-08-03T17:24:12.357Z,3.67
2022-08-03T17:26:44.742Z,3.33
2022-08-03T17:29:13.166Z,3.15
2022-08-03T17:31:49.045Z,3.70
2022-08-03T17:34:16.809Z,3.13
2022-08-03T17:39:56.812Z,3.22
2022-08-03T17:42:31.267Z,3.08
2022-08-03T17:45:07.329Z,2.90
2022-08-03T17:50:24.029Z,3.10
2022-08-03T17:52:58.336Z,3.65
2022-08-03T17:55:56.100Z,3.78
2022-08-03T17:58:21.630Z,3.38
2022-08-03T18:02:02.608Z,3.17
2022-08-03T18:04:00.786Z,3.33
2022-08-03T18:06:31.231Z,3.28
2022-08-03T18:09:00.066Z,3.70
2022-08-03T18:11:37.100Z,3.28
2022-08-03T18:14:24.297Z,3.20
2022-08-03T18:17:01.468Z,3.45
2022-08-03T18:20:02.610Z,3.25
2022-08-03T18:22:17.214Z,3.30
2022-08-03T18:24:46.279Z,3.30
2022-08-03T18:27:16.279Z,3.40
2022-08-03T18:29:47.005Z,3.45
2022-08-03T18:32:16.876Z,3.25
2022-08-03T18:34:53.747Z,3.47
2022-08-03T18:37:25.244Z,3.47
2022-08-03T18:39:53.947Z,3.72
2022-08-03T18:42:26.300Z,3.22
2022-08-03T18:44:56.228Z,3.60
2022-08-03T18:47:51.506Z,3.92
2022-08-03T18:50:34.842Z,3.28
2022-08-03T18:53:15.605Z,3.22
2022-08-03T18:56:04.295Z,3.88
2022-08-03T18:58:35.521Z,3.30
2022-08-03T19:01:15.341Z,3.22
2022-08-03T19:03:58.736Z,3.30
2022-08-03T19:06:28.584Z,3.33
2022-08-03T19:09:03.561Z,3.50
2022-08-03T19:12:14.559Z,4.00
2022-08-03T19:14:35.335Z,2.80
2022-08-03T19:17:08.766Z,3.88
2022-08-03T19:19:44.423Z,2.97
2022-08-03T19:22:16.196Z,3.05
2022-08-03T19:24:45.992Z,3.40
2022-08-03T19:27:13.601Z,2.90
2022-08-03T19:29:59.142Z,2.85
2022-08-03T19:32:31.309Z,3.17
2022-08-03T19:34:59.585Z,3.25
2022-08-03T19:37:38.315Z,3.05
2022-08-03T19:40:10.817Z,3.40
2022-08-03T19:42:40.827Z,3.58
2022-08-03T19:45:13.930Z,3.28
2022-08-03T19:48:03.177Z,3.58
2022-08-03T19:50:32.655Z,3.40
2022-08-03T19:53:03.062Z,3.70
2022-08-03T19:55:32.356Z,4.93
2022-08-03T19:58:01.147Z,3.65
2022-08-03T20:00:36.777Z,3.25
2022-08-03T20:05:56.984Z,3.47
2022-08-03T20:08:29.872Z,3.43
2022-08-03T20:10:57.353Z,3.15
2022-08-03T20:13:28.392Z,3.63
2022-08-03T20:15:55.603Z,3.38
2022-08-03T20:18:24.308Z,3.83
2022-08-03T20:20:54.829Z,3.65
2022-08-03T20:23:23.708Z,3.67
2022-08-03T20:25:58.149Z,3.67
2022-08-03T20:28:29.707Z,3.87
2022-08-03T20:30:57.121Z,3.90
2022-08-03T20:33:27.697Z,3.87
2022-08-03T20:36:13.142Z,4.40
2022-08-03T20:38:47.159Z,4.70
2022-08-03T20:41:15.292Z,4.30
2022-08-03T20:43:42.563Z,4.40
2022-08-03T20:46:29.397Z,4.30
2022-08-03T20:49:00.121Z,4.90
2022-08-03T20:51:49.009Z,5.97
2022-08-03T20:54:29.184Z,4.70
2022-08-03T20:56:59.308Z,4.53
2022-08-03T20:59:36.569Z,4.50
2022-08-03T21:02:06.075Z,4.80
2022-08-03T21:04:33.420Z,4.33
2022-08-03T21:07:04.583Z,4.30
2022-08-03T21:09:55.484Z,4.50
2022-08-03T21:12:47.340Z,4.03
2022-08-03T21:12:55.172Z,3.30
2022-08-03T21:13:08.690Z,3.70
2022-08-03T21:16:14.309Z,4.30
2022-08-03T21:18:06.436Z,4.30
2022-08-03T21:20:35.248Z,4.00
2022-08-03T21:23:02.483Z,4.47
2022-08-03T21:25:33.785Z,4.03
2022-08-03T21:28:01.638Z,4.30
2022-08-03T21:30:30.536Z,4.00
2022-08-03T21:32:59.124Z,4.13
2022-08-03T21:35:26.673Z,4.30
2022-08-03T21:38:13.019Z,4.03
2022-08-03T21:40:41.456Z,4.20
2022-08-03T21:43:08.676Z,4.40
2022-08-03T21:45:44.253Z,4.10
2022-08-03T21:48:13.218Z,4.50
2022-08-03T21:50:41.986Z,4.20
2022-08-03T21:53:10.587Z,4.23
2022-08-03T21:55:39.118Z,4.80
2022-08-03T21:58:06.874Z,4.83
2022-08-03T22:00:34.145Z,4.80
2022-08-03T22:03:15.334Z,4.50
2022-08-03T22:05:44.636Z,4.63
2022-08-03T22:08:13.669Z,4.70
2022-08-03T22:10:40.981Z,4.90
2022-08-03T22:13:08.250Z,5.07
2022-08-03T22:15:35.536Z,4.50
2022-08-03T22:18:03.635Z,4.50
2022-08-03T22:20:30.974Z,4.90
2022-08-03T22:23:01.844Z,4.77
2022-08-03T22:25:31.256Z,4.50
2022-08-03T22:28:02.754Z,4.50
2022-08-03T22:30:31.468Z,4.90
2022-08-03T22:32:59.298Z,4.63
2022-08-03T22:35:27.662Z,4.90
2022-08-03T22:37:55.969Z,4.90
2022-08-03T22:40:23.143Z,4.70
2022-08-03T22:42:52.142Z,4.67
2022-08-03T22:46:07.154Z,5.10
2022-08-03T22:48:08.028Z,5.10
2022-08-03T22:50:35.562Z,4.73
2022-08-03T22:53:03.280Z,4.90
2022-08-03T22:55:31.607Z,4.57
2022-08-03T22:57:58.763Z,4.83
2022-08-03T23:00:26.099Z,4.70
2022-08-03T23:02:54.762Z,5.20
2022-08-03T23:06:00.990Z,4.73
2022-08-03T23:08:13.094Z,4.90
2022-08-03T23:10:43.736Z,4.80
2022-08-03T23:13:14.059Z,4.63
2022-08-03T23:15:41.410Z,5.30
2022-08-03T23:18:09.434Z,5.20
2022-08-03T23:20:37.767Z,5.27
2022-08-03T23:23:05.107Z,5.37
2022-08-03T23:25:32.414Z,5.07
2022-08-03T23:28:04.945Z,5.03
2022-08-03T23:30:34.258Z,5.00
2022-08-03T23:33:01.738Z,5.30
2022-08-03T23:36:28.528Z,5.27
2022-08-03T23:38:37.950Z,4.70
2022-08-03T23:41:05.587Z,5.20
2022-08-03T23:43:45.041Z,5.10
2022-08-03T23:46:21.785Z,5.30
2022-08-03T23:48:48.927Z,5.50
2022-08-03T23:51:36.308Z,6.10
2022-08-03T23:54:10.557Z,5.70
2022-08-03T23:56:44.464Z,5.63
2022-08-03T23:59:16.587Z,5.97
